sensor_id;sensor_type;location;lat;lon;timestamp;temperature;humidity
4637;DHT22;2331;48.806;9.140;2023-03-21T00:01:13;13.00;1.00
4637;DHT22;2331;48.806;9.140;2023-03-21T00:03:40;13.00;1.00
4637;DHT22;2331;48.806;9.140;2023-03-21T00:06:11;13.00;1.00
4637;DHT22;2331;48.806;9.140;2023-03-21T00:08:39;13.00;1.00
4637;DHT22;2331;48.806;9.140;2023-03-21T00:11:08;13.10;1.00
4637;DHT22;2331;48.806;9.140;2023-03-21T00:13:35;13.00;1.00
4637;DHT22;2331;48.806;9.140;2023-03-21T00:16:04;12.90;1.00
4637;DHT22;2331;48.806;9.140;2023-03-21T00:18:31;12.90;1.00
4637;DHT22;2331;48.806;9.140;2023-03-21T00:21:03;12.80;1.00
4637;DHT22;2331;48.806;9.140;2023-03-21T00:23:32;12.90;1.00
4637;DHT22;2331;48.806;9.140;2023-03-21T00:25:59;12.90;1.00
4637;DHT22;2331;48.806;9.140;2023-03-21T00:28:26;12.90;1.00
4637;DHT22;2331;48.806;9.140;2023-03-21T00:30:56;12.90;1.00
4637;DHT22;2331;48.806;9.140;2023-03-21T00:33:23;12.90;1.00
4637;DHT22;2331;48.806;9.140;2023-03-21T00:35:50;12.90;1.00
4637;DHT22;2331;48.806;9.140;2023-03-21T00:38:18;12.80;1.00
4637;DHT22;2331;48.806;9.140;2023-03-21T00:40:47;12.80;1.00
4637;DHT22;2331;48.806;9.140;2023-03-21T00:43:14;12.80;1.00
4637;DHT22;2331;48.806;9.140;2023-03-21T00:45:43;12.80;1.00
4637;DHT22;2331;48.806;9.140;2023-03-21T00:48:10;12.80;1.00
4637;DHT22;2331;48.806;9.140;2023-03-21T00:50:38;12.90;1.00
4637;DHT22;2331;48.806;9.140;2023-03-21T00:53:06;12.80;1.00
4637;DHT22;2331;48.806;9.140;2023-03-21T00:55:33;12.90;1.00
4637;DHT22;2331;48.806;9.140;2023-03-21T00:58:01;12.80;1.00
4637;DHT22;2331;48.806;9.140;2023-03-21T01:00:28;12.80;1.00
4637;DHT22;2331;48.806;9.140;2023-03-21T01:02:55;12.80;1.00
4637;DHT22;2331;48.806;9.140;2023-03-21T01:05:23;12.80;1.00
4637;DHT22;2331;48.806;9.140;2023-03-21T01:08:04;12.80;1.00
4637;DHT22;2331;48.806;9.140;2023-03-21T01:10:32;12.80;1.00
4637;DHT22;2331;48.806;9.140;2023-03-21T01:13:00;12.70;1.00
4637;DHT22;2331;48.806;9.140;2023-03-21T01:15:27;12.70;1.00
4637;DHT22;2331;48.806;9.140;2023-03-21T01:17:53;12.70;1.00
4637;DHT22;2331;48.806;9.140;2023-03-21T01:20:20;12.70;1.00
4637;DHT22;2331;48.806;9.140;2023-03-21T01:22:47;12.70;1.00
4637;DHT22;2331;48.806;9.140;2023-03-21T01:25:14;12.60;1.00
4637;DHT22;2331;48.806;9.140;2023-03-21T01:27:41;12.70;1.00
4637;DHT22;2331;48.806;9.140;2023-03-21T01:30:10;12.60;1.00
4637;DHT22;2331;48.806;9.140;2023-03-21T01:32:37;12.70;1.00
4637;DHT22;2331;48.806;9.140;2023-03-21T01:35:05;12.60;1.00
4637;DHT22;2331;48.806;9.140;2023-03-21T01:37:31;12.70;1.00
4637;DHT22;2331;48.806;9.140;2023-03-21T01:39:59;12.60;1.00
4637;DHT22;2331;48.806;9.140;2023-03-21T01:42:25;12.60;1.00
4637;DHT22;2331;48.806;9.140;2023-03-21T01:44:54;12.60;1.00
4637;DHT22;2331;48.806;9.140;2023-03-21T01:47:24;12.60;1.00
4637;DHT22;2331;48.806;9.140;2023-03-21T01:49:55;12.60;1.00
4637;DHT22;2331;48.806;9.140;2023-03-21T01:52:26;12.50;1.00
4637;DHT22;2331;48.806;9.140;2023-03-21T01:54:55;12.60;1.00
4637;DHT22;2331;48.806;9.140;2023-03-21T01:57:26;12.60;1.00
4637;DHT22;2331;48.806;9.140;2023-03-21T01:59:57;12.50;1.00
4637;DHT22;2331;48.806;9.140;2023-03-21T02:02:29;12.50;1.00
4637;DHT22;2331;48.806;9.140;2023-03-21T02:04:57;12.50;1.00
4637;DHT22;2331;48.806;9.140;2023-03-21T02:07:27;12.50;1.00
4637;DHT22;2331;48.806;9.140;2023-03-21T02:09:57;12.50;1.00
4637;DHT22;2331;48.806;9.140;2023-03-21T02:12:24;12.50;1.00
4637;DHT22;2331;48.806;9.140;2023-03-21T02:14:53;12.50;1.00
4637;DHT22;2331;48.806;9.140;2023-03-21T02:17:26;12.50;1.00
4637;DHT22;2331;48.806;9.140;2023-03-21T02:20:27;12.50;1.00
4637;DHT22;2331;48.806;9.140;2023-03-21T02:26:33;12.40;1.00
4637;DHT22;2331;48.806;9.140;2023-03-21T02:29:07;12.40;1.00
4637;DHT22;2331;48.806;9.140;2023-03-21T02:31:45;12.40;1.00
4637;DHT22;2331;48.806;9.140;2023-03-21T02:34:34;12.40;1.00
4637;DHT22;2331;48.806;9.140;2023-03-21T02:37:18;12.40;1.00
4637;DHT22;2331;48.806;9.140;2023-03-21T02:39:54;12.40;1.00
4637;DHT22;2331;48.806;9.140;2023-03-21T02:42:27;12.40;1.00
4637;DHT22;2331;48.806;9.140;2023-03-21T02:45:00;12.40;1.00
4637;DHT22;2331;48.806;9.140;2023-03-21T02:47:30;12.30;1.00
4637;DHT22;2331;48.806;9.140;2023-03-21T02:50:04;12.30;1.00
4637;DHT22;2331;48.806;9.140;2023-03-21T02:52:35;12.30;1.00
4637;DHT22;2331;48.806;9.140;2023-03-21T02:55:05;12.30;1.00
4637;DHT22;2331;48.806;9.140;2023-03-21T02:57:38;12.30;1.00
4637;DHT22;2331;48.806;9.140;2023-03-21T03:00:08;12.30;1.00
4637;DHT22;2331;48.806;9.140;2023-03-21T03:02:38;12.30;1.00
4637;DHT22;2331;48.806;9.140;2023-03-21T03:05:13;12.20;1.00
4637;DHT22;2331;48.806;9.140;2023-03-21T03:07:49;12.20;1.00
4637;DHT22;2331;48.806;9.140;2023-03-21T03:10:28;12.20;1.00
4637;DHT22;2331;48.806;9.140;2023-03-21T03:13:06;12.30;1.00
4637;DHT22;2331;48.806;9.140;2023-03-21T03:15:42;12.20;1.00
4637;DHT22;2331;48.806;9.140;2023-03-21T03:18:18;12.20;1.00
4637;DHT22;2331;48.806;9.140;2023-03-21T03:20:52;12.20;1.00
4637;DHT22;2331;48.806;9.140;2023-03-21T03:23:28;12.20;1.00
4637;DHT22;2331;48.806;9.140;2023-03-21T03:25:58;12.30;1.00
4637;DHT22;2331;48.806;9.140;2023-03-21T03:28:32;12.30;1.00
4637;DHT22;2331;48.806;9.140;2023-03-21T03:31:01;12.20;1.00
4637;DHT22;2331;48.806;9.140;2023-03-21T03:33:29;12.20;1.00
4637;DHT22;2331;48.806;9.140;2023-03-21T03:35:58;12.20;1.00
4637;DHT22;2331;48.806;9.140;2023-03-21T03:38:28;12.20;1.00
4637;DHT22;2331;48.806;9.140;2023-03-21T03:40:58;12.20;1.00
4637;DHT22;2331;48.806;9.140;2023-03-21T03:43:33;12.20;1.00
4637;DHT22;2331;48.806;9.140;2023-03-21T03:46:08;12.20;1.00
4637;DHT22;2331;48.806;9.140;2023-03-21T03:48:41;12.10;1.00
4637;DHT22;2331;48.806;9.140;2023-03-21T03:51:15;12.10;1.00
4637;DHT22;2331;48.806;9.140;2023-03-21T03:53:46;12.10;1.00
4637;DHT22;2331;48.806;9.140;2023-03-21T03:56:17;12.20;1.00
4637;DHT22;2331;48.806;9.140;2023-03-21T03:58:44;12.10;1.00
4637;DHT22;2331;48.806;9.140;2023-03-21T04:01:11;12.10;1.00
4637;DHT22;2331;48.806;9.140;2023-03-21T04:03:40;12.10;1.00
4637;DHT22;2331;48.806;9.140;2023-03-21T04:06:08;12.10;1.00
4637;DHT22;2331;48.806;9.140;2023-03-21T04:08:35;12.10;1.00
4637;DHT22;2331;48.806;9.140;2023-03-21T04:11:05;12.00;1.00
4637;DHT22;2331;48.806;9.140;2023-03-21T04:13:32;12.00;1.00
4637;DHT22;2331;48.806;9.140;2023-03-21T04:15:59;12.00;1.00
4637;DHT22;2331;48.806;9.140;2023-03-21T04:18:26;12.00;1.00
4637;DHT22;2331;48.806;9.140;2023-03-21T04:20:52;12.00;1.00
4637;DHT22;2331;48.806;9.140;2023-03-21T04:23:19;11.90;1.00
4637;DHT22;2331;48.806;9.140;2023-03-21T04:25:46;11.90;1.00
4637;DHT22;2331;48.806;9.140;2023-03-21T04:28:14;11.90;1.00
4637;DHT22;2331;48.806;9.140;2023-03-21T04:30:41;12.00;1.00
4637;DHT22;2331;48.806;9.140;2023-03-21T04:33:07;11.90;1.00
4637;DHT22;2331;48.806;9.140;2023-03-21T04:35:34;11.90;1.00
4637;DHT22;2331;48.806;9.140;2023-03-21T04:38:02;11.90;1.00
4637;DHT22;2331;48.806;9.140;2023-03-21T04:40:29;11.80;1.00
4637;DHT22;2331;48.806;9.140;2023-03-21T04:42:56;11.90;1.00
4637;DHT22;2331;48.806;9.140;2023-03-21T04:45:27;11.80;1.00
4637;DHT22;2331;48.806;9.140;2023-03-21T04:47:53;11.80;1.00
4637;DHT22;2331;48.806;9.140;2023-03-21T04:50:21;11.80;1.00
4637;DHT22;2331;48.806;9.140;2023-03-21T04:52:48;11.70;1.00
4637;DHT22;2331;48.806;9.140;2023-03-21T04:55:14;11.70;1.00
4637;DHT22;2331;48.806;9.140;2023-03-21T04:57:41;11.60;1.00
4637;DHT22;2331;48.806;9.140;2023-03-21T05:00:09;11.60;1.00
4637;DHT22;2331;48.806;9.140;2023-03-21T05:02:40;11.60;1.00
4637;DHT22;2331;48.806;9.140;2023-03-21T05:05:07;11.60;1.00
4637;DHT22;2331;48.806;9.140;2023-03-21T05:07:36;11.60;1.00
4637;DHT22;2331;48.806;9.140;2023-03-21T05:10:05;11.50;1.00
4637;DHT22;2331;48.806;9.140;2023-03-21T05:12:32;11.50;1.00
4637;DHT22;2331;48.806;9.140;2023-03-21T05:14:59;11.50;1.00
4637;DHT22;2331;48.806;9.140;2023-03-21T05:17:26;11.50;1.00
4637;DHT22;2331;48.806;9.140;2023-03-21T05:19:54;11.50;1.00
4637;DHT22;2331;48.806;9.140;2023-03-21T05:22:22;11.40;1.00
4637;DHT22;2331;48.806;9.140;2023-03-21T05:24:51;11.40;1.00
4637;DHT22;2331;48.806;9.140;2023-03-21T05:27:20;11.40;1.00
4637;DHT22;2331;48.806;9.140;2023-03-21T05:30:00;11.30;1.00
4637;DHT22;2331;48.806;9.140;2023-03-21T05:32:27;11.30;1.00
4637;DHT22;2331;48.806;9.140;2023-03-21T05:34:55;11.30;1.00
4637;DHT22;2331;48.806;9.140;2023-03-21T05:37:22;11.20;1.00
4637;DHT22;2331;48.806;9.140;2023-03-21T05:39:49;11.30;1.00
4637;DHT22;2331;48.806;9.140;2023-03-21T05:42:17;11.30;1.00
4637;DHT22;2331;48.806;9.140;2023-03-21T05:44:46;11.20;1.00
4637;DHT22;2331;48.806;9.140;2023-03-21T05:47:21;11.20;1.00
4637;DHT22;2331;48.806;9.140;2023-03-21T05:49:48;11.20;1.00
4637;DHT22;2331;48.806;9.140;2023-03-21T05:52:16;11.20;1.00
4637;DHT22;2331;48.806;9.140;2023-03-21T05:54:43;11.30;1.00
4637;DHT22;2331;48.806;9.140;2023-03-21T05:57:11;11.20;1.00
4637;DHT22;2331;48.806;9.140;2023-03-21T05:59:38;11.20;1.00
4637;DHT22;2331;48.806;9.140;2023-03-21T06:02:05;11.20;1.00
4637;DHT22;2331;48.806;9.140;2023-03-21T06:04:32;11.20;1.00
4637;DHT22;2331;48.806;9.140;2023-03-21T06:06:59;11.20;1.00
4637;DHT22;2331;48.806;9.140;2023-03-21T06:09:27;11.30;1.00
4637;DHT22;2331;48.806;9.140;2023-03-21T06:11:55;11.30;1.00
4637;DHT22;2331;48.806;9.140;2023-03-21T06:14:23;11.30;1.00
4637;DHT22;2331;48.806;9.140;2023-03-21T06:16:50;11.30;1.00
4637;DHT22;2331;48.806;9.140;2023-03-21T06:19:18;11.30;1.00
4637;DHT22;2331;48.806;9.140;2023-03-21T06:21:45;11.30;1.00
4637;DHT22;2331;48.806;9.140;2023-03-21T06:24:12;11.20;1.00
4637;DHT22;2331;48.806;9.140;2023-03-21T06:26:40;11.30;1.00
4637;DHT22;2331;48.806;9.140;2023-03-21T06:29:07;11.20;1.00
4637;DHT22;2331;48.806;9.140;2023-03-21T06:31:34;11.30;1.00
4637;DHT22;2331;48.806;9.140;2023-03-21T06:34:01;11.30;1.00
4637;DHT22;2331;48.806;9.140;2023-03-21T06:36:28;11.30;1.00
4637;DHT22;2331;48.806;9.140;2023-03-21T06:38:55;11.30;1.00
4637;DHT22;2331;48.806;9.140;2023-03-21T06:41:21;11.30;1.00
4637;DHT22;2331;48.806;9.140;2023-03-21T06:43:49;11.20;1.00
4637;DHT22;2331;48.806;9.140;2023-03-21T06:46:16;11.20;1.00
4637;DHT22;2331;48.806;9.140;2023-03-21T06:48:43;11.30;1.00
4637;DHT22;2331;48.806;9.140;2023-03-21T06:51:11;11.20;1.00
4637;DHT22;2331;48.806;9.140;2023-03-21T06:53:38;11.30;1.00
4637;DHT22;2331;48.806;9.140;2023-03-21T06:56:06;11.30;1.00
4637;DHT22;2331;48.806;9.140;2023-03-21T06:58:34;11.30;1.00
4637;DHT22;2331;48.806;9.140;2023-03-21T07:01:02;11.30;1.00
4637;DHT22;2331;48.806;9.140;2023-03-21T07:03:30;11.30;1.00
4637;DHT22;2331;48.806;9.140;2023-03-21T07:05:57;11.30;1.00
4637;DHT22;2331;48.806;9.140;2023-03-21T07:08:24;11.30;1.00
4637;DHT22;2331;48.806;9.140;2023-03-21T07:10:55;11.40;1.00
4637;DHT22;2331;48.806;9.140;2023-03-21T07:13:22;11.40;1.00
4637;DHT22;2331;48.806;9.140;2023-03-21T07:15:48;11.30;1.00
4637;DHT22;2331;48.806;9.140;2023-03-21T07:18:17;11.30;1.00
4637;DHT22;2331;48.806;9.140;2023-03-21T07:20:46;11.40;1.00
4637;DHT22;2331;48.806;9.140;2023-03-21T07:23:15;11.50;1.00
4637;DHT22;2331;48.806;9.140;2023-03-21T07:25:42;11.50;1.00
4637;DHT22;2331;48.806;9.140;2023-03-21T07:28:09;11.50;1.00
4637;DHT22;2331;48.806;9.140;2023-03-21T07:30:35;11.60;1.00
4637;DHT22;2331;48.806;9.140;2023-03-21T07:33:02;11.60;1.00
4637;DHT22;2331;48.806;9.140;2023-03-21T07:35:32;11.70;1.00
4637;DHT22;2331;48.806;9.140;2023-03-21T07:37:58;11.70;1.00
4637;DHT22;2331;48.806;9.140;2023-03-21T07:40:25;11.80;1.00
4637;DHT22;2331;48.806;9.140;2023-03-21T07:42:52;11.80;1.00
4637;DHT22;2331;48.806;9.140;2023-03-21T07:45:19;11.80;1.00
4637;DHT22;2331;48.806;9.140;2023-03-21T07:47:48;11.90;1.00
4637;DHT22;2331;48.806;9.140;2023-03-21T07:50:15;12.00;1.00
4637;DHT22;2331;48.806;9.140;2023-03-21T07:52:44;12.00;1.00
4637;DHT22;2331;48.806;9.140;2023-03-21T07:55:12;12.00;1.00
4637;DHT22;2331;48.806;9.140;2023-03-21T07:57:39;12.10;1.00
4637;DHT22;2331;48.806;9.140;2023-03-21T08:00:07;12.10;1.00
4637;DHT22;2331;48.806;9.140;2023-03-21T08:02:34;12.20;1.00
4637;DHT22;2331;48.806;9.140;2023-03-21T08:05:01;12.20;1.00
4637;DHT22;2331;48.806;9.140;2023-03-21T08:07:29;12.30;1.00
4637;DHT22;2331;48.806;9.140;2023-03-21T08:09:58;12.30;1.00
4637;DHT22;2331;48.806;9.140;2023-03-21T08:12:25;12.40;1.00
4637;DHT22;2331;48.806;9.140;2023-03-21T08:14:56;12.40;1.00
4637;DHT22;2331;48.806;9.140;2023-03-21T08:17:22;12.50;1.00
4637;DHT22;2331;48.806;9.140;2023-03-21T08:19:49;12.60;1.00
4637;DHT22;2331;48.806;9.140;2023-03-21T08:22:16;12.60;1.00
4637;DHT22;2331;48.806;9.140;2023-03-21T08:24:43;12.60;1.00
4637;DHT22;2331;48.806;9.140;2023-03-21T08:27:11;12.70;1.00
4637;DHT22;2331;48.806;9.140;2023-03-21T08:29:38;12.80;1.00
4637;DHT22;2331;48.806;9.140;2023-03-21T08:32:07;12.90;1.00
4637;DHT22;2331;48.806;9.140;2023-03-21T08:34:34;12.90;1.00
4637;DHT22;2331;48.806;9.140;2023-03-21T08:37:01;13.00;1.00
4637;DHT22;2331;48.806;9.140;2023-03-21T08:39:28;13.10;1.00
4637;DHT22;2331;48.806;9.140;2023-03-21T08:41:55;13.20;1.00
4637;DHT22;2331;48.806;9.140;2023-03-21T08:44:23;13.40;1.00
4637;DHT22;2331;48.806;9.140;2023-03-21T08:46:53;13.50;1.00
4637;DHT22;2331;48.806;9.140;2023-03-21T08:49:20;13.60;1.00
4637;DHT22;2331;48.806;9.140;2023-03-21T08:51:46;13.60;1.00
4637;DHT22;2331;48.806;9.140;2023-03-21T08:54:18;13.70;1.00
4637;DHT22;2331;48.806;9.140;2023-03-21T08:56:46;13.70;1.00
4637;DHT22;2331;48.806;9.140;2023-03-21T08:59:12;13.90;1.00
4637;DHT22;2331;48.806;9.140;2023-03-21T09:01:41;13.90;1.00
4637;DHT22;2331;48.806;9.140;2023-03-21T09:04:08;14.00;1.00
4637;DHT22;2331;48.806;9.140;2023-03-21T09:06:35;14.00;1.00
4637;DHT22;2331;48.806;9.140;2023-03-21T09:09:02;14.10;1.00
4637;DHT22;2331;48.806;9.140;2023-03-21T09:11:31;14.20;1.00
4637;DHT22;2331;48.806;9.140;2023-03-21T09:13:58;14.40;1.00
4637;DHT22;2331;48.806;9.140;2023-03-21T09:16:26;14.40;1.00
4637;DHT22;2331;48.806;9.140;2023-03-21T09:18:54;14.50;1.00
4637;DHT22;2331;48.806;9.140;2023-03-21T09:21:24;14.60;1.00
4637;DHT22;2331;48.806;9.140;2023-03-21T09:23:53;14.70;1.00
4637;DHT22;2331;48.806;9.140;2023-03-21T09:26:24;14.80;1.00
4637;DHT22;2331;48.806;9.140;2023-03-21T09:28:53;14.80;1.00
4637;DHT22;2331;48.806;9.140;2023-03-21T09:31:20;14.80;1.00
4637;DHT22;2331;48.806;9.140;2023-03-21T09:33:50;15.00;1.00
4637;DHT22;2331;48.806;9.140;2023-03-21T09:36:19;15.10;1.00
4637;DHT22;2331;48.806;9.140;2023-03-21T09:38:51;15.10;1.00
4637;DHT22;2331;48.806;9.140;2023-03-21T09:41:49;15.30;1.00
4637;DHT22;2331;48.806;9.140;2023-03-21T09:44:27;15.40;1.00
4637;DHT22;2331;48.806;9.140;2023-03-21T09:47:01;15.50;1.00
4637;DHT22;2331;48.806;9.140;2023-03-21T09:49:31;15.60;1.00
4637;DHT22;2331;48.806;9.140;2023-03-21T09:52:04;15.70;1.00
4637;DHT22;2331;48.806;9.140;2023-03-21T09:54:36;15.80;1.00
4637;DHT22;2331;48.806;9.140;2023-03-21T09:57:10;15.90;1.00
4637;DHT22;2331;48.806;9.140;2023-03-21T09:59:40;15.90;1.00
4637;DHT22;2331;48.806;9.140;2023-03-21T10:02:20;16.00;1.00
4637;DHT22;2331;48.806;9.140;2023-03-21T10:04:56;16.00;1.00
4637;DHT22;2331;48.806;9.140;2023-03-21T10:07:25;15.90;1.00
4637;DHT22;2331;48.806;9.140;2023-03-21T10:09:55;16.00;1.00
4637;DHT22;2331;48.806;9.140;2023-03-21T10:12:24;16.10;1.00
4637;DHT22;2331;48.806;9.140;2023-03-21T10:14:56;16.30;1.00
4637;DHT22;2331;48.806;9.140;2023-03-21T10:17:27;16.30;1.00
4637;DHT22;2331;48.806;9.140;2023-03-21T10:19:57;16.40;1.00
4637;DHT22;2331;48.806;9.140;2023-03-21T10:22:28;16.50;1.00
4637;DHT22;2331;48.806;9.140;2023-03-21T10:24:55;16.60;1.00
4637;DHT22;2331;48.806;9.140;2023-03-21T10:27:21;16.80;1.00
4637;DHT22;2331;48.806;9.140;2023-03-21T10:29:48;16.90;1.00
4637;DHT22;2331;48.806;9.140;2023-03-21T10:32:17;16.80;1.00
4637;DHT22;2331;48.806;9.140;2023-03-21T10:34:49;17.00;1.00
4637;DHT22;2331;48.806;9.140;2023-03-21T10:37:19;17.10;1.00
4637;DHT22;2331;48.806;9.140;2023-03-21T10:39:48;17.20;1.00
4637;DHT22;2331;48.806;9.140;2023-03-21T10:42:18;17.30;1.00
4637;DHT22;2331;48.806;9.140;2023-03-21T10:44:46;17.40;1.00
4637;DHT22;2331;48.806;9.140;2023-03-21T10:47:18;17.50;1.00
4637;DHT22;2331;48.806;9.140;2023-03-21T10:49:46;17.60;1.00
4637;DHT22;2331;48.806;9.140;2023-03-21T10:52:16;17.60;1.00
4637;DHT22;2331;48.806;9.140;2023-03-21T10:54:44;17.70;1.00
4637;DHT22;2331;48.806;9.140;2023-03-21T10:57:17;17.80;1.00
4637;DHT22;2331;48.806;9.140;2023-03-21T10:59:49;17.90;1.00
4637;DHT22;2331;48.806;9.140;2023-03-21T11:02:20;17.90;1.00
4637;DHT22;2331;48.806;9.140;2023-03-21T11:04:50;18.00;1.00
4637;DHT22;2331;48.806;9.140;2023-03-21T11:07:18;18.10;1.00
4637;DHT22;2331;48.806;9.140;2023-03-21T11:09:47;18.10;1.00
4637;DHT22;2331;48.806;9.140;2023-03-21T11:12:18;18.10;1.00
4637;DHT22;2331;48.806;9.140;2023-03-21T11:14:53;18.20;1.00
4637;DHT22;2331;48.806;9.140;2023-03-21T11:17:23;18.20;1.00
4637;DHT22;2331;48.806;9.140;2023-03-21T11:19:56;18.30;1.00
4637;DHT22;2331;48.806;9.140;2023-03-21T11:22:24;18.30;1.00
4637;DHT22;2331;48.806;9.140;2023-03-21T11:24:56;18.20;1.00
4637;DHT22;2331;48.806;9.140;2023-03-21T11:27:26;18.20;1.00
4637;DHT22;2331;48.806;9.140;2023-03-21T11:29:55;18.30;1.00
4637;DHT22;2331;48.806;9.140;2023-03-21T11:32:25;18.30;1.00
4637;DHT22;2331;48.806;9.140;2023-03-21T11:34:56;18.30;1.00
4637;DHT22;2331;48.806;9.140;2023-03-21T11:37:26;18.30;1.00
4637;DHT22;2331;48.806;9.140;2023-03-21T11:39:55;18.30;1.00
4637;DHT22;2331;48.806;9.140;2023-03-21T11:42:29;18.30;1.00
4637;DHT22;2331;48.806;9.140;2023-03-21T11:45:00;18.30;1.00
4637;DHT22;2331;48.806;9.140;2023-03-21T11:47:28;18.30;1.00
4637;DHT22;2331;48.806;9.140;2023-03-21T11:49:56;18.30;1.00
4637;DHT22;2331;48.806;9.140;2023-03-21T11:52:28;18.10;1.00
4637;DHT22;2331;48.806;9.140;2023-03-21T11:55:17;18.20;1.00
4637;DHT22;2331;48.806;9.140;2023-03-21T11:57:56;18.20;1.00
4637;DHT22;2331;48.806;9.140;2023-03-21T12:00:30;18.30;1.00
4637;DHT22;2331;48.806;9.140;2023-03-21T12:03:25;18.30;1.00
4637;DHT22;2331;48.806;9.140;2023-03-21T12:05:57;18.30;1.00
4637;DHT22;2331;48.806;9.140;2023-03-21T12:08:34;18.30;1.00
4637;DHT22;2331;48.806;9.140;2023-03-21T12:11:14;18.30;1.00
4637;DHT22;2331;48.806;9.140;2023-03-21T12:13:53;18.30;1.00
4637;DHT22;2331;48.806;9.140;2023-03-21T12:16:33;18.30;1.00
4637;DHT22;2331;48.806;9.140;2023-03-21T12:19:25;18.40;1.00
4637;DHT22;2331;48.806;9.140;2023-03-21T12:22:02;18.40;1.00
4637;DHT22;2331;48.806;9.140;2023-03-21T12:24:34;18.50;1.00
4637;DHT22;2331;48.806;9.140;2023-03-21T12:27:08;18.50;1.00
4637;DHT22;2331;48.806;9.140;2023-03-21T12:29:51;18.50;1.00
4637;DHT22;2331;48.806;9.140;2023-03-21T12:32:27;18.60;1.00
4637;DHT22;2331;48.806;9.140;2023-03-21T12:35:15;18.50;1.00
4637;DHT22;2331;48.806;9.140;2023-03-21T12:37:52;18.40;1.00
4637;DHT22;2331;48.806;9.140;2023-03-21T12:40:31;18.50;1.00
4637;DHT22;2331;48.806;9.140;2023-03-21T12:43:12;18.50;1.00
4637;DHT22;2331;48.806;9.140;2023-03-21T12:45:48;18.60;1.00
4637;DHT22;2331;48.806;9.140;2023-03-21T12:48:21;18.70;1.00
4637;DHT22;2331;48.806;9.140;2023-03-21T12:50:52;18.70;1.00
4637;DHT22;2331;48.806;9.140;2023-03-21T12:53:29;18.80;1.00
4637;DHT22;2331;48.806;9.140;2023-03-21T12:56:03;18.80;1.00
4637;DHT22;2331;48.806;9.140;2023-03-21T12:58:38;18.80;1.00
4637;DHT22;2331;48.806;9.140;2023-03-21T13:01:08;18.90;1.00
4637;DHT22;2331;48.806;9.140;2023-03-21T13:03:40;18.90;1.00
4637;DHT22;2331;48.806;9.140;2023-03-21T13:06:12;19.00;1.00
4637;DHT22;2331;48.806;9.140;2023-03-21T13:08:46;19.00;1.00
4637;DHT22;2331;48.806;9.140;2023-03-21T13:11:16;19.10;1.00
4637;DHT22;2331;48.806;9.140;2023-03-21T13:13:46;19.10;1.00
4637;DHT22;2331;48.806;9.140;2023-03-21T13:16:20;19.10;1.00
4637;DHT22;2331;48.806;9.140;2023-03-21T13:18:58;19.00;1.00
4637;DHT22;2331;48.806;9.140;2023-03-21T13:21:36;19.00;1.00
4637;DHT22;2331;48.806;9.140;2023-03-21T13:24:18;19.00;1.00
4637;DHT22;2331;48.806;9.140;2023-03-21T13:26:48;19.00;1.00
4637;DHT22;2331;48.806;9.140;2023-03-21T13:29:24;19.00;1.00
4637;DHT22;2331;48.806;9.140;2023-03-21T13:31:54;19.10;1.00
4637;DHT22;2331;48.806;9.140;2023-03-21T13:34:22;19.10;1.00
4637;DHT22;2331;48.806;9.140;2023-03-21T13:36:50;19.10;1.00
4637;DHT22;2331;48.806;9.140;2023-03-21T13:39:20;19.00;1.00
4637;DHT22;2331;48.806;9.140;2023-03-21T13:41:50;18.90;1.00
4637;DHT22;2331;48.806;9.140;2023-03-21T13:44:31;18.90;1.00
4637;DHT22;2331;48.806;9.140;2023-03-21T13:47:01;18.90;1.00
4637;DHT22;2331;48.806;9.140;2023-03-21T13:49:31;18.80;1.00
4637;DHT22;2331;48.806;9.140;2023-03-21T13:52:00;18.80;1.00
4637;DHT22;2331;48.806;9.140;2023-03-21T13:54:50;18.70;1.00
4637;DHT22;2331;48.806;9.140;2023-03-21T13:57:34;18.70;1.00
4637;DHT22;2331;48.806;9.140;2023-03-21T14:00:21;18.70;1.00
4637;DHT22;2331;48.806;9.140;2023-03-21T14:02:57;18.70;1.00
4637;DHT22;2331;48.806;9.140;2023-03-21T14:05:27;18.70;1.00
4637;DHT22;2331;48.806;9.140;2023-03-21T14:07:56;18.70;1.00
4637;DHT22;2331;48.806;9.140;2023-03-21T14:10:28;18.70;1.00
4637;DHT22;2331;48.806;9.140;2023-03-21T14:12:57;18.60;1.00
4637;DHT22;2331;48.806;9.140;2023-03-21T14:15:26;18.60;1.00
4637;DHT22;2331;48.806;9.140;2023-03-21T14:17:58;18.60;1.00
4637;DHT22;2331;48.806;9.140;2023-03-21T14:20:28;18.50;1.00
4637;DHT22;2331;48.806;9.140;2023-03-21T14:22:56;18.70;1.00
4637;DHT22;2331;48.806;9.140;2023-03-21T14:25:25;18.60;1.00
4637;DHT22;2331;48.806;9.140;2023-03-21T14:28:00;18.70;1.00
4637;DHT22;2331;48.806;9.140;2023-03-21T14:30:31;18.80;1.00
4637;DHT22;2331;48.806;9.140;2023-03-21T14:33:04;18.70;1.00
4637;DHT22;2331;48.806;9.140;2023-03-21T14:35:33;18.60;1.00
4637;DHT22;2331;48.806;9.140;2023-03-21T14:38:04;18.70;1.00
4637;DHT22;2331;48.806;9.140;2023-03-21T14:40:31;18.80;1.00
4637;DHT22;2331;48.806;9.140;2023-03-21T14:43:03;18.80;1.00
4637;DHT22;2331;48.806;9.140;2023-03-21T14:45:33;18.70;1.00
4637;DHT22;2331;48.806;9.140;2023-03-21T14:48:05;18.80;1.00
4637;DHT22;2331;48.806;9.140;2023-03-21T14:50:37;18.70;1.00
4637;DHT22;2331;48.806;9.140;2023-03-21T14:53:05;18.80;1.00
4637;DHT22;2331;48.806;9.140;2023-03-21T14:55:40;18.80;1.00
4637;DHT22;2331;48.806;9.140;2023-03-21T14:58:10;18.70;1.00
4637;DHT22;2331;48.806;9.140;2023-03-21T15:00:38;18.70;1.00
4637;DHT22;2331;48.806;9.140;2023-03-21T15:03:07;18.70;1.00
4637;DHT22;2331;48.806;9.140;2023-03-21T15:05:34;18.50;1.00
4637;DHT22;2331;48.806;9.140;2023-03-21T15:08:08;18.60;1.00
4637;DHT22;2331;48.806;9.140;2023-03-21T15:10:38;18.60;1.00
4637;DHT22;2331;48.806;9.140;2023-03-21T15:13:14;18.60;1.00
4637;DHT22;2331;48.806;9.140;2023-03-21T15:15:42;18.60;1.00
4637;DHT22;2331;48.806;9.140;2023-03-21T15:18:15;18.70;1.00
4637;DHT22;2331;48.806;9.140;2023-03-21T15:20:45;18.70;1.00
4637;DHT22;2331;48.806;9.140;2023-03-21T15:23:19;18.70;1.00
4637;DHT22;2331;48.806;9.140;2023-03-21T15:25:51;18.60;1.00
4637;DHT22;2331;48.806;9.140;2023-03-21T15:28:18;18.60;1.00
4637;DHT22;2331;48.806;9.140;2023-03-21T15:30:47;18.60;1.00
4637;DHT22;2331;48.806;9.140;2023-03-21T15:33:17;18.60;1.00
4637;DHT22;2331;48.806;9.140;2023-03-21T15:35:49;18.50;1.00
4637;DHT22;2331;48.806;9.140;2023-03-21T15:38:27;18.60;1.00
4637;DHT22;2331;48.806;9.140;2023-03-21T15:41:13;18.50;1.00
4637;DHT22;2331;48.806;9.140;2023-03-21T15:43:41;18.30;1.00
4637;DHT22;2331;48.806;9.140;2023-03-21T15:46:13;18.40;1.00
4637;DHT22;2331;48.806;9.140;2023-03-21T15:48:42;18.40;1.00
4637;DHT22;2331;48.806;9.140;2023-03-21T15:51:14;18.30;1.00
4637;DHT22;2331;48.806;9.140;2023-03-21T15:53:43;18.30;1.00
4637;DHT22;2331;48.806;9.140;2023-03-21T15:56:10;18.30;1.00
4637;DHT22;2331;48.806;9.140;2023-03-21T15:58:42;18.30;1.00
4637;DHT22;2331;48.806;9.140;2023-03-21T16:01:13;18.20;1.00
4637;DHT22;2331;48.806;9.140;2023-03-21T16:03:45;18.20;1.00
4637;DHT22;2331;48.806;9.140;2023-03-21T16:06:18;18.10;1.00
4637;DHT22;2331;48.806;9.140;2023-03-21T16:08:48;18.10;1.00
4637;DHT22;2331;48.806;9.140;2023-03-21T16:11:18;18.10;1.00
4637;DHT22;2331;48.806;9.140;2023-03-21T16:13:49;18.10;1.00
4637;DHT22;2331;48.806;9.140;2023-03-21T16:16:18;17.90;1.00
4637;DHT22;2331;48.806;9.140;2023-03-21T16:18:47;17.90;1.00
4637;DHT22;2331;48.806;9.140;2023-03-21T16:21:16;17.90;1.00
4637;DHT22;2331;48.806;9.140;2023-03-21T16:23:44;17.80;1.00
4637;DHT22;2331;48.806;9.140;2023-03-21T16:26:12;17.70;1.00
4637;DHT22;2331;48.806;9.140;2023-03-21T16:28:41;17.80;1.00
4637;DHT22;2331;48.806;9.140;2023-03-21T16:31:11;17.80;1.00
4637;DHT22;2331;48.806;9.140;2023-03-21T16:33:38;17.80;1.00
4637;DHT22;2331;48.806;9.140;2023-03-21T16:36:10;17.80;1.00
4637;DHT22;2331;48.806;9.140;2023-03-21T16:38:37;17.60;1.00
4637;DHT22;2331;48.806;9.140;2023-03-21T16:41:08;17.60;1.00